Time,TemperatureF,DewpointF,PressureIn,WindDirection,WindDirectionDegrees,WindSpeedMPH,WindSpeedGustMPH,Humidity,HourlyPrecipIn,Conditions,Clouds,dailyrainin,SoftwareType,DateUTC
2013-03-22 00:02:00,37.0,30.0,30.77,West,270,0.0,0.0,76,-99.99,,,-99.99,,2013-03-22 07:02:00,
2013-03-22 00:11:00,37.0,30.0,30.77,West,270,0.0,0.0,76,-99.99,,,-99.99,,2013-03-22 07:11:00,
2013-03-22 00:21:00,37.0,30.0,30.78,West,270,0.0,0.0,76,-99.99,,,-99.99,,2013-03-22 07:21:00,
2013-03-22 00:32:00,36.0,29.0,30.77,West,270,0.0,0.0,77,-99.99,,,-99.99,,2013-03-22 07:32:00,
2013-03-22 00:41:00,36.0,29.0,30.77,West,270,0.0,0.0,77,-99.99,,,-99.99,,2013-03-22 07:41:00,
2013-03-22 00:52:00,36.0,30.0,30.78,West,270,0.0,0.0,78,-99.99,,,-99.99,,2013-03-22 07:52:00,
2013-03-22 01:02:00,36.0,30.0,30.77,West,270,0.0,0.0,78,-99.99,,,-99.99,,2013-03-22 08:02:00,
2013-03-22 01:12:00,36.0,30.0,30.77,West,270,0.0,0.0,78,-99.99,,,-99.99,,2013-03-22 08:12:00,
2013-03-22 01:21:00,36.0,30.0,30.77,West,270,0.0,0.0,78,-99.99,,,-99.99,,2013-03-22 08:21:00,
2013-03-22 01:32:00,36.0,30.0,30.77,West,270,0.0,0.0,78,-99.99,,,-99.99,,2013-03-22 08:32:00,
2013-03-22 01:41:00,36.0,30.0,30.77,West,270,0.0,0.0,78,-99.99,,,-99.99,,2013-03-22 08:41:00,
2013-03-22 01:51:00,36.0,30.0,30.77,West,270,0.0,0.0,78,-99.99,,,-99.99,,2013-03-22 08:51:00,
2013-03-22 02:02:00,36.0,30.0,30.78,West,270,0.0,0.0,78,-99.99,,,-99.99,,2013-03-22 09:02:00,
2013-03-22 02:11:00,36.0,30.0,30.78,West,270,0.0,0.0,78,-99.99,,,-99.99,,2013-03-22 09:11:00,
2013-03-22 02:22:00,36.0,30.0,30.78,West,270,0.0,0.0,78,-99.99,,,-99.99,,2013-03-22 09:22:00,
2013-03-22 02:32:00,35.0,29.0,30.79,West,270,0.0,0.0,78,-99.99,,,-99.99,,2013-03-22 09:32:00,
2013-03-22 02:42:00,35.0,29.0,30.79,West,270,0.0,0.0,78,-99.99,,,-99.99,,2013-03-22 09:42:00,
2013-03-22 02:53:00,35.0,29.0,30.79,West,270,0.0,0.0,79,-99.99,,,-99.99,,2013-03-22 09:53:00,
2013-03-22 03:03:00,35.0,29.0,30.79,West,270,0.0,0.0,78,-99.99,,,-99.99,,2013-03-22 10:03:00,
2013-03-22 03:11:00,35.0,29.0,30.79,West,270,0.0,0.0,78,-99.99,,,-99.99,,2013-03-22 10:11:00,
2013-03-22 03:22:00,36.0,30.0,30.79,West,270,0.0,0.0,78,-99.99,,,-99.99,,2013-03-22 10:22:00,
2013-03-22 03:32:00,36.0,30.0,30.79,West,270,0.0,0.0,78,-99.99,,,-99.99,,2013-03-22 10:32:00,
2013-03-22 03:42:00,36.0,30.0,30.79,West,270,0.0,0.0,78,-99.99,,,-99.99,,2013-03-22 10:42:00,
2013-03-22 03:52:00,36.0,29.0,30.79,West,270,0.0,0.0,77,-99.99,,,-99.99,,2013-03-22 10:52:00,
2013-03-22 04:02:00,36.0,29.0,30.80,West,270,0.0,0.0,77,-99.99,,,-99.99,,2013-03-22 11:02:00,
2013-03-22 04:11:00,36.0,29.0,30.80,West,270,0.0,0.0,77,-99.99,,,-99.99,,2013-03-22 11:11:00,
2013-03-22 04:22:00,36.0,29.0,30.80,West,270,0.0,0.0,77,-99.99,,,-99.99,,2013-03-22 11:22:00,
2013-03-22 04:32:00,37.0,30.0,30.80,West,270,0.0,0.0,77,-99.99,,,-99.99,,2013-03-22 11:32:00,
2013-03-22 04:41:00,37.0,30.0,30.80,West,270,0.0,0.0,77,-99.99,,,-99.99,,2013-03-22 11:41:00,
2013-03-22 04:52:00,37.0,30.0,30.81,West,270,0.0,0.0,77,-99.99,,,-99.99,,2013-03-22 11:52:00,
2013-03-22 05:02:00,37.0,30.0,30.80,West,270,0.0,0.0,76,-99.99,,,-99.99,,2013-03-22 12:02:00,
2013-03-22 05:12:00,37.0,30.0,30.80,West,270,0.0,0.0,76,-99.99,,,-99.99,,2013-03-22 12:12:00,
2013-03-22 05:21:00,37.0,30.0,30.80,West,270,0.0,0.0,76,-99.99,,,-99.99,,2013-03-22 12:21:00,
2013-03-22 05:32:00,36.0,29.0,30.80,West,270,0.0,0.0,77,-99.99,,,-99.99,,2013-03-22 12:32:00,
2013-03-22 05:41:00,36.0,29.0,30.80,West,270,0.0,0.0,77,-99.99,,,-99.99,,2013-03-22 12:41:00,
2013-03-22 05:51:00,36.0,29.0,30.80,West,270,0.0,0.0,76,-99.99,,,-99.99,,2013-03-22 12:51:00,
2013-03-22 06:02:00,36.0,29.0,30.80,West,270,0.0,0.0,76,-99.99,,,-99.99,,2013-03-22 13:02:00,
2013-03-22 06:12:00,36.0,29.0,30.80,West,270,0.0,0.0,76,-99.99,,,-99.99,,2013-03-22 13:12:00,
2013-03-22 06:21:00,36.0,29.0,30.81,West,270,0.0,0.0,76,-99.99,,,-99.99,,2013-03-22 13:21:00,
2013-03-22 06:32:00,36.0,29.0,30.81,West,270,0.0,0.0,77,-99.99,,,-99.99,,2013-03-22 13:32:00,
2013-03-22 06:41:00,36.0,29.0,30.81,West,270,0.0,0.0,77,-99.99,,,-99.99,,2013-03-22 13:41:00,
2013-03-22 06:52:00,35.0,28.0,30.81,West,270,0.0,0.0,76,-99.99,,,-99.99,,2013-03-22 13:52:00,
2013-03-22 07:02:00,35.0,28.0,30.82,West,270,0.0,0.0,76,-99.99,,,-99.99,,2013-03-22 14:02:00,
2013-03-22 07:11:00,35.0,28.0,30.82,West,270,0.0,0.0,76,-99.99,,,-99.99,,2013-03-22 14:11:00,
2013-03-22 07:21:00,34.0,28.0,30.83,West,270,0.0,0.0,78,-99.99,,,-99.99,,2013-03-22 14:21:00,
2013-03-22 07:32:00,34.0,28.0,30.83,West,270,0.0,0.0,79,-99.99,,,-99.99,,2013-03-22 14:32:00,
2013-03-22 07:42:00,34.0,28.0,30.83,West,270,0.0,0.0,79,-99.99,,,-99.99,,2013-03-22 14:42:00,
2013-03-22 07:52:00,34.0,28.0,30.83,West,270,0.0,0.0,79,-99.99,,,-99.99,,2013-03-22 14:52:00,
2013-03-22 08:02:00,34.0,28.0,30.84,West,270,0.0,0.0,78,-99.99,,,-99.99,,2013-03-22 15:02:00,
2013-03-22 08:11:00,34.0,28.0,30.84,West,270,0.0,0.0,78,-99.99,,,-99.99,,2013-03-22 15:11:00,
2013-03-22 08:21:00,34.0,28.0,30.84,West,270,0.0,0.0,78,-99.99,,,-99.99,,2013-03-22 15:21:00,
2013-03-22 08:32:00,35.0,29.0,30.84,West,270,0.0,0.0,78,-99.99,,,-99.99,,2013-03-22 15:32:00,
2013-03-22 08:42:00,35.0,29.0,30.84,West,270,0.0,0.0,78,-99.99,,,-99.99,,2013-03-22 15:42:00,
2013-03-22 08:52:00,35.0,29.0,30.84,West,270,0.0,0.0,79,-99.99,,,-99.99,,2013-03-22 15:52:00,
2013-03-22 09:02:00,35.0,29.0,30.85,West,270,0.0,0.0,79,-99.99,,,-99.99,,2013-03-22 16:02:00,
2013-03-22 09:13:00,36.0,30.0,30.85,West,270,0.0,0.0,79,-99.99,,,-99.99,,2013-03-22 16:13:00,
2013-03-22 09:22:00,36.0,30.0,30.85,West,270,0.0,0.0,79,-99.99,,,-99.99,,2013-03-22 16:22:00,
2013-03-22 09:32:00,37.0,31.0,30.86,West,270,0.0,0.0,79,-99.99,,,-99.99,,2013-03-22 16:32:00,
2013-03-22 09:42:00,37.0,31.0,30.86,West,270,0.0,0.0,78,-99.99,,,-99.99,,2013-03-22 16:42:00,
2013-03-22 09:52:00,37.0,31.0,30.86,West,270,0.0,0.0,78,-99.99,,,-99.99,,2013-03-22 16:52:00,
2013-03-22 10:02:00,38.0,31.0,30.86,West,270,0.0,0.0,77,-99.99,,,-99.99,,2013-03-22 17:02:00,
2013-03-22 10:12:00,38.0,31.0,30.86,West,270,0.0,0.0,76,-99.99,,,-99.99,,2013-03-22 17:12:00,
2013-03-22 10:22:00,38.0,31.0,30.86,West,270,0.0,0.0,76,-99.99,,,-99.99,,2013-03-22 17:22:00,
2013-03-22 10:32:00,39.0,31.0,30.87,West,270,0.0,0.0,74,-99.99,,,-99.99,,2013-03-22 17:32:00,
2013-03-22 10:41:00,39.0,31.0,30.87,West,270,0.0,0.0,74,-99.99,,,-99.99,,2013-03-22 17:41:00,
2013-03-22 10:52:00,39.0,31.0,30.87,West,270,0.0,0.0,73,-99.99,,,-99.99,,2013-03-22 17:52:00,
2013-03-22 11:02:00,41.0,33.0,30.88,West,270,0.0,0.0,73,-99.99,,,-99.99,,2013-03-22 18:02:00,
2013-03-22 11:21:00,42.0,33.0,30.88,West,270,0.0,0.0,71,-99.99,,,-99.99,,2013-03-22 18:21:00,
2013-03-22 11:32:00,42.0,32.0,30.88,West,270,0.0,0.0,68,-99.99,,,-99.99,,2013-03-22 18:32:00,
2013-03-22 11:42:00,42.0,32.0,30.88,West,270,0.0,0.0,68,-99.99,,,-99.99,,2013-03-22 18:42:00,
2013-03-22 11:52:00,43.0,33.0,30.88,West,270,0.0,0.0,67,-99.99,,,-99.99,,2013-03-22 18:52:00,
2013-03-22 12:02:00,47.0,35.0,30.89,West,270,0.0,0.0,62,-99.99,,,-99.99,,2013-03-22 19:02:00,
2013-03-22 12:32:00,48.0,33.0,30.89,West,270,0.0,0.0,56,-99.99,,,-99.99,,2013-03-22 19:32:00,
2013-03-22 12:51:00,48.0,33.0,30.89,West,270,0.0,0.0,55,-99.99,,,-99.99,,2013-03-22 19:51:00,
2013-03-22 13:01:00,46.0,31.0,30.89,West,270,0.0,0.0,55,-99.99,,,-99.99,,2013-03-22 20:01:00,
2013-03-22 13:22:00,46.0,31.0,30.89,West,270,0.0,0.0,55,-99.99,,,-99.99,,2013-03-22 20:22:00,
2013-03-22 13:32:00,45.0,31.0,30.90,West,270,0.0,0.0,57,-99.99,,,-99.99,,2013-03-22 20:32:00,
2013-03-22 13:42:00,45.0,31.0,30.90,West,270,0.0,0.0,57,-99.99,,,-99.99,,2013-03-22 20:42:00,
2013-03-22 13:51:00,45.0,31.0,30.89,West,270,0.0,0.0,57,-99.99,,,-99.99,,2013-03-22 20:51:00,
2013-03-22 14:02:00,52.0,35.0,30.89,West,270,0.0,0.0,53,-99.99,,,-99.99,,2013-03-22 21:02:00,
2013-03-22 14:11:00,54.0,37.0,30.89,West,270,0.0,0.0,52,-99.99,,,-99.99,,2013-03-22 21:11:00,
2013-03-22 14:32:00,55.0,35.0,30.89,West,270,0.0,0.0,47,-99.99,,,-99.99,,2013-03-22 21:32:00,
2013-03-22 15:02:00,56.0,33.0,30.89,West,270,0.0,0.0,42,-99.99,,,-99.99,,2013-03-22 22:02:00,
2013-03-22 15:22:00,56.0,33.0,30.89,West,270,0.0,0.0,41,-99.99,,,-99.99,,2013-03-22 22:22:00,
2013-03-22 15:32:00,56.0,32.0,30.89,West,270,0.0,0.0,40,-99.99,,,-99.99,,2013-03-22 22:32:00,
2013-03-22 15:52:00,55.0,31.0,30.89,West,270,0.0,0.0,40,-99.99,,,-99.99,,2013-03-22 22:52:00,
2013-03-22 16:02:00,56.0,32.0,30.89,West,270,0.0,0.0,40,-99.99,,,-99.99,,2013-03-22 23:02:00,
2013-03-22 16:32:00,55.0,30.0,30.89,West,270,0.0,0.0,38,-99.99,,,-99.99,,2013-03-22 23:32:00,
2013-03-22 16:52:00,55.0,32.0,30.90,West,270,0.0,0.0,42,-99.99,,,-99.99,,2013-03-22 23:52:00,
2013-03-22 17:02:00,55.0,31.0,30.90,West,270,0.0,0.0,40,-99.99,,,-99.99,,2013-03-23 00:02:00,
2013-03-22 17:32:00,54.0,30.0,30.91,West,270,0.0,0.0,39,-99.99,,,-99.99,,2013-03-23 00:32:00,
2013-03-22 17:41:00,54.0,31.0,30.91,West,270,0.0,0.0,42,-99.99,,,-99.99,,2013-03-23 00:41:00,
2013-03-22 17:52:00,54.0,31.0,30.91,West,270,0.0,0.0,42,-99.99,,,-99.99,,2013-03-23 00:52:00,
2013-03-22 18:03:00,54.0,33.0,30.91,West,270,0.0,0.0,44,-99.99,,,-99.99,,2013-03-23 01:03:00,
2013-03-22 18:31:00,52.0,31.0,30.91,West,270,0.0,0.0,44,-99.99,,,-99.99,,2013-03-23 01:31:00,
2013-03-22 18:52:00,51.0,29.0,30.91,West,270,0.0,0.0,42,-99.99,,,-99.99,,2013-03-23 01:52:00,
2013-03-22 19:02:00,49.0,28.0,30.90,West,270,0.0,0.0,44,-99.99,,,-99.99,,2013-03-23 02:02:00,
2013-03-22 19:12:00,49.0,28.0,30.90,West,270,0.0,0.0,44,-99.99,,,-99.99,,2013-03-23 02:12:00,
2013-03-22 19:22:00,48.0,28.0,30.90,West,270,0.0,0.0,46,-99.99,,,-99.99,,2013-03-23 02:22:00,
2013-03-22 19:31:00,46.0,25.0,30.90,West,270,0.0,0.0,44,-99.99,,,-99.99,,2013-03-23 02:31:00,
2013-03-22 19:42:00,46.0,25.0,30.90,West,270,0.0,0.0,44,-99.99,,,-99.99,,2013-03-23 02:42:00,
2013-03-22 19:51:00,46.0,25.0,30.90,West,270,0.0,0.0,44,-99.99,,,-99.99,,2013-03-23 02:51:00,
2013-03-22 20:02:00,44.0,25.0,30.91,West,270,0.0,0.0,47,-99.99,,,-99.99,,2013-03-23 03:02:00,
2013-03-22 20:11:00,44.0,25.0,30.91,West,270,0.0,0.0,47,-99.99,,,-99.99,,2013-03-23 03:11:00,
2013-03-22 20:22:00,44.0,25.0,30.90,West,270,0.0,0.0,47,-99.99,,,-99.99,,2013-03-23 03:22:00,
2013-03-22 20:32:00,43.0,26.0,30.91,West,270,0.0,0.0,50,-99.99,,,-99.99,,2013-03-23 03:32:00,
2013-03-22 20:42:00,43.0,26.0,30.91,West,270,0.0,0.0,50,-99.99,,,-99.99,,2013-03-23 03:42:00,
2013-03-22 20:52:00,43.0,25.0,30.91,West,270,0.0,0.0,49,-99.99,,,-99.99,,2013-03-23 03:52:00,
2013-03-22 21:02:00,42.0,24.0,30.92,West,270,0.0,0.0,49,-99.99,,,-99.99,,2013-03-23 04:02:00,
2013-03-22 21:12:00,42.0,24.0,30.92,West,270,0.0,0.0,49,-99.99,,,-99.99,,2013-03-23 04:12:00,
2013-03-22 21:22:00,42.0,23.0,30.93,West,270,0.0,0.0,47,-99.99,,,-99.99,,2013-03-23 04:22:00,
2013-03-22 21:32:00,41.0,23.0,30.93,West,270,0.0,0.0,48,-99.99,,,-99.99,,2013-03-23 04:32:00,
2013-03-22 21:42:00,41.0,23.0,30.93,West,270,0.0,0.0,48,-99.99,,,-99.99,,2013-03-23 04:42:00,
2013-03-22 21:52:00,41.0,23.0,30.93,West,270,0.0,0.0,49,-99.99,,,-99.99,,2013-03-23 04:52:00,
2013-03-22 22:02:00,41.0,23.0,30.94,West,270,0.0,0.0,49,-99.99,,,-99.99,,2013-03-23 05:02:00,
2013-03-22 22:11:00,41.0,23.0,30.94,West,270,0.0,0.0,49,-99.99,,,-99.99,,2013-03-23 05:11:00,
2013-03-22 22:21:00,40.0,23.0,30.94,West,270,0.0,0.0,50,-99.99,,,-99.99,,2013-03-23 05:21:00,
2013-03-22 22:32:00,40.0,23.0,30.93,West,270,0.0,0.0,51,-99.99,,,-99.99,,2013-03-23 05:32:00,
2013-03-22 22:42:00,40.0,23.0,30.93,West,270,0.0,0.0,51,-99.99,,,-99.99,,2013-03-23 05:42:00,
2013-03-22 22:52:00,40.0,23.0,30.93,West,270,0.0,0.0,51,-99.99,,,-99.99,,2013-03-23 05:52:00,
2013-03-22 23:02:00,40.0,24.0,30.93,West,270,0.0,0.0,53,-99.99,,,-99.99,,2013-03-23 06:02:00,
2013-03-22 23:11:00,40.0,24.0,30.93,West,270,0.0,0.0,53,-99.99,,,-99.99,,2013-03-23 06:11:00,
2013-03-22 23:21:00,40.0,24.0,30.92,West,270,0.0,0.0,53,-99.99,,,-99.99,,2013-03-23 06:21:00,
2013-03-22 23:32:00,40.0,26.0,30.92,West,270,0.0,0.0,56,-99.99,,,-99.99,,2013-03-23 06:32:00,
2013-03-22 23:42:00,40.0,26.0,30.92,West,270,0.0,0.0,56,-99.99,,,-99.99,,2013-03-23 06:42:00,
2013-03-22 23:51:00,40.0,26.0,30.93,West,270,0.0,0.0,57,-99.99,,,-99.99,,2013-03-23 06:51:00,